地図

経路データ

SID SEASON NUMBER BASIN SUBBASIN NAME ISO_TIME NATURE LAT LON WMO_WIND WMO_PRES WMO_AGENCY TRACK_TYPE DIST2LAND LANDFALL IFLAG USA_AGENCY USA_ATCF_ID USA_LAT USA_LON USA_RECORD USA_STATUS USA_WIND USA_PRES USA_SSHS USA_R34_NE USA_R34_SE USA_R34_SW USA_R34_NW USA_R50_NE USA_R50_SE USA_R50_SW USA_R50_NW USA_R64_NE USA_R64_SE USA_R64_SW USA_R64_NW USA_POCI USA_ROCI USA_RMW USA_EYE TOKYO_LAT TOKYO_LON TOKYO_GRADE TOKYO_WIND TOKYO_PRES TOKYO_R50_DIR TOKYO_R50_LONG TOKYO_R50_SHORT TOKYO_R30_DIR TOKYO_R30_LONG TOKYO_R30_SHORT TOKYO_LAND CMA_LAT CMA_LON CMA_CAT CMA_WIND CMA_PRES HKO_LAT HKO_LON HKO_CAT HKO_WIND HKO_PRES NEWDELHI_LAT NEWDELHI_LON NEWDELHI_GRADE NEWDELHI_WIND NEWDELHI_PRES NEWDELHI_CI NEWDELHI_DP NEWDELHI_POCI REUNION_LAT REUNION_LON REUNION_TYPE REUNION_WIND REUNION_PRES REUNION_TNUM REUNION_CI REUNION_RMW REUNION_R34_NE REUNION_R34_SE REUNION_R34_SW REUNION_R34_NW REUNION_R50_NE REUNION_R50_SE REUNION_R50_SW REUNION_R50_NW REUNION_R64_NE REUNION_R64_SE REUNION_R64_SW REUNION_R64_NW BOM_LAT BOM_LON BOM_TYPE BOM_WIND BOM_PRES BOM_TNUM BOM_CI BOM_RMW BOM_R34_NE BOM_R34_SE BOM_R34_SW BOM_R34_NW BOM_R50_NE BOM_R50_SE BOM_R50_SW BOM_R50_NW BOM_R64_NE BOM_R64_SE BOM_R64_SW BOM_R64_NW BOM_ROCI BOM_POCI BOM_EYE BOM_POS_METHOD BOM_PRES_METHOD NADI_LAT NADI_LON NADI_CAT NADI_WIND NADI_PRES WELLINGTON_LAT WELLINGTON_LON WELLINGTON_WIND WELLINGTON_PRES DS824_LAT DS824_LON DS824_STAGE DS824_WIND DS824_PRES TD9636_LAT TD9636_LON TD9636_STAGE TD9636_WIND TD9636_PRES TD9635_LAT TD9635_LON TD9635_WIND TD9635_PRES TD9635_ROCI NEUMANN_LAT NEUMANN_LON NEUMANN_CLASS NEUMANN_WIND NEUMANN_PRES MLC_LAT MLC_LON MLC_CLASS MLC_WIND MLC_PRES USA_GUST BOM_GUST BOM_GUST_PER REUNION_GUST REUNION_GUST_PER USA_SEAHGT USA_SEARAD_NE USA_SEARAD_SE USA_SEARAD_SW USA_SEARAD_NW STORM_SPEED STORM_DIR
1966202N32316 1966 45 NA NA DOROTHY 1966-07-21 06:00:00 TS 31.5000 -44.0000 25 hurdat_atl main 1855 1855 O_____________ hurdat_atl AL041966 31.5000 -44.0000 TD 25 -1 4 97
1966202N32316 1966 45 NA NA DOROTHY 1966-07-21 09:00:00 TS 31.4726 -43.7398 main 1866 1866 P_____________ AL041966 31.4726 -43.7398 TD 25 -1 4 90
1966202N32316 1966 45 NA NA DOROTHY 1966-07-21 12:00:00 TS 31.5000 -43.5000 25 hurdat_atl main 1873 1867 O_____________ hurdat_atl AL041966 31.5000 -43.5000 TD 25 -1 4 71
1966202N32316 1966 45 NA NA DOROTHY 1966-07-21 15:00:00 TS 31.6074 -43.2927 main 1870 1864 P_____________ AL041966 31.6074 -43.2927 TD 25 -1 4 60
1966202N32316 1966 45 NA NA DOROTHY 1966-07-21 18:00:00 TS 31.7000 -43.1000 25 hurdat_atl main 1868 1868 O_____________ hurdat_atl AL041966 31.7000 -43.1000 TD 25 -1 3 78
1966202N32316 1966 45 NA NA DOROTHY 1966-07-21 21:00:00 TS 31.6800 -42.8999 main 1876 1876 P_____________ AL041966 31.6800 -42.8999 TD 25 -1 4 106
1966202N32316 1966 45 NA NA DOROTHY 1966-07-22 00:00:00 TS 31.6000 -42.7000 25 hurdat_atl main 1894 1894 O_____________ hurdat_atl AL041966 31.6000 -42.7000 TD 25 -1 4 116
1966202N32316 1966 45 NA NA DOROTHY 1966-07-22 03:00:00 TS 31.5075 -42.4925 main 1912 1912 P_____________ AL041966 31.5075 -42.4925 TD 25 -1 4 120
1966202N32316 1966 45 NA NA DOROTHY 1966-07-22 06:00:00 TS 31.4000 -42.3000 25 hurdat_atl main 1930 1930 O_____________ hurdat_atl AL041966 31.4000 -42.3000 TD 25 -1 4 125
1966202N32316 1966 45 NA NA DOROTHY 1966-07-22 09:00:00 TS 31.3000 -42.1426 main 1949 1949 P_____________ AL041966 31.3000 -42.1426 TD 25 -1 3 128
1966202N32316 1966 45 NA NA DOROTHY 1966-07-22 12:00:00 TS 31.2000 -42.0000 25 hurdat_atl main 1963 1963 O_____________ hurdat_atl AL041966 31.2000 -42.0000 TD 25 -1 3 132
1966202N32316 1966 45 NA NA DOROTHY 1966-07-22 15:00:00 TS 31.0700 -41.8424 main 1981 1981 P_____________ AL041966 31.0700 -41.8424 TD 25 -1 3 128
1966202N32316 1966 45 NA NA DOROTHY 1966-07-22 18:00:00 TS 31.0000 -41.7000 25 hurdat_atl main 1996 1990 O_____________ hurdat_atl AL041966 31.0000 -41.7000 TD 25 -1 2 92
1966202N32316 1966 45 NA NA DOROTHY 1966-07-22 21:00:00 TS 31.0625 -41.5627 main 1990 1984 P_____________ AL041966 31.0625 -41.5627 TD 27 -1 3 41
1966202N32316 1966 45 NA NA DOROTHY 1966-07-23 00:00:00 TS 31.2000 -41.5000 30 hurdat_atl main 1984 1970 O_____________ hurdat_atl AL041966 31.2000 -41.5000 TD 30 -1 3 3
1966202N32316 1966 45 NA NA DOROTHY 1966-07-23 03:00:00 TS 31.3275 -41.5625 main 1970 1946 P_____________ AL041966 31.3275 -41.5625 TD 32 -1 3 330
1966202N32316 1966 45 NA NA DOROTHY 1966-07-23 06:00:00 TS 31.5000 -41.7000 35 hurdat_atl main 1946 1922 O_____________ hurdat_atl AL041966 31.5000 -41.7000 TS 35 0 5 330
1966202N32316 1966 45 NA NA DOROTHY 1966-07-23 09:00:00 TS 31.7350 -41.8425 main 1922 1883 P_____________ AL041966 31.7350 -41.8425 TS 40 0 6 333
1966202N32316 1966 45 NA NA DOROTHY 1966-07-23 12:00:00 TS 32.0000 -42.0000 45 hurdat_atl main 1883 1849 O_____________ hurdat_atl AL041966 32.0000 -42.0000 TS 45 0 6 333
1966202N32316 1966 45 NA NA DOROTHY 1966-07-23 15:00:00 TS 32.2650 -42.1575 main 1845 1821 P_____________ AL041966 32.2650 -42.1575 TS 50 0 6 333
1966202N32316 1966 45 NA NA DOROTHY 1966-07-23 18:00:00 TS 32.5000 -42.3000 55 hurdat_atl main 1821 1797 O_____________ hurdat_atl AL041966 32.5000 -42.3000 TS 55 0 5 331
1966202N32316 1966 45 NA NA DOROTHY 1966-07-23 21:00:00 TS 32.6800 -42.4300 main 1797 1782 P_____________ AL041966 32.6800 -42.4300 TS 55 0 3 331
1966202N32316 1966 45 NA NA DOROTHY 1966-07-24 00:00:00 TS 32.8000 -42.5000 55 hurdat_atl main 1782 1772 O_____________ hurdat_atl AL041966 32.8000 -42.5000 TS 55 0 2 347
1966202N32316 1966 45 NA NA DOROTHY 1966-07-24 03:00:00 TS 32.8800 -42.4726 main 1772 1772 P_____________ AL041966 32.8800 -42.4726 TS 57 0 1 40
1966202N32316 1966 45 NA NA DOROTHY 1966-07-24 06:00:00 TS 32.9000 -42.4000 60 hurdat_atl main 1777 1777 O_____________ hurdat_atl AL041966 32.9000 -42.4000 TS 60 0 1 111
1966202N32316 1966 45 NA NA DOROTHY 1966-07-24 09:00:00 TS 32.8425 -42.3574 main 1787 1787 P_____________ AL041966 32.8425 -42.3574 TS 60 0 1 140
1966202N32316 1966 45 NA NA DOROTHY 1966-07-24 12:00:00 TS 32.8000 -42.3000 60 hurdat_atl main 1791 1786 O_____________ hurdat_atl AL041966 32.8000 -42.3000 TS 60 0 1 76
1966202N32316 1966 45 NA NA DOROTHY 1966-07-24 15:00:00 TS 32.8700 -42.2225 main 1786 1780 P_____________ AL041966 32.8700 -42.2225 TS 62 0 3 40
1966202N32316 1966 45 NA NA DOROTHY 1966-07-24 18:00:00 TS 33.0000 -42.1000 65 998 hurdat_atl main 1780 1775 O_____________ hurdat_atl AL041966 33.0000 -42.1000 HU 65 998 1 4 43
1966202N32316 1966 45 NA NA DOROTHY 1966-07-24 21:00:00 TS 33.1274 -41.9298 main 1779 1764 P_____________ AL041966 33.1274 -41.9298 HU 65 1 5 48
1966202N32316 1966 45 NA NA DOROTHY 1966-07-25 00:00:00 TS 33.3000 -41.7000 65 hurdat_atl main 1769 1759 O_____________ hurdat_atl AL041966 33.3000 -41.7000 HU 65 1 6 48
1966202N32316 1966 45 NA NA DOROTHY 1966-07-25 03:00:00 TS 33.5201 -41.4075 main 1764 1749 P_____________ AL041966 33.5201 -41.4075 HU 65 1 7 45
1966202N32316 1966 45 NA NA DOROTHY 1966-07-25 06:00:00 TS 33.8000 -41.1000 65 hurdat_atl main 1750 1731 O_____________ hurdat_atl AL041966 33.8000 -41.1000 HU 65 1 8 39
1966202N32316 1966 45 NA NA DOROTHY 1966-07-25 09:00:00 TS 34.1275 -40.8127 main 1736 1709 P_____________ AL041966 34.1275 -40.8127 HU 65 1 8 31
1966202N32316 1966 45 NA NA DOROTHY 1966-07-25 12:00:00 TS 34.5000 -40.6000 65 hurdat_atl main 1709 1678 O_____________ hurdat_atl AL041966 34.5000 -40.6000 HU 65 1 8 19
1966202N32316 1966 45 NA NA DOROTHY 1966-07-25 15:00:00 TS 34.9149 -40.4899 main 1678 1642 P_____________ AL041966 34.9149 -40.4899 HU 65 1 8 6
1966202N32316 1966 45 NA NA DOROTHY 1966-07-25 18:00:00 TS 35.3000 -40.5000 65 997 hurdat_atl main 1642 1609 O_____________ hurdat_atl AL041966 35.3000 -40.5000 HU 65 997 1 7 352
1966202N32316 1966 45 NA NA DOROTHY 1966-07-25 21:00:00 TS 35.5874 -40.5974 main 1609 1581 P_____________ AL041966 35.5874 -40.5974 HU 65 1 6 334
1966202N32316 1966 45 NA NA DOROTHY 1966-07-26 00:00:00 TS 35.8000 -40.8000 65 hurdat_atl main 1581 1547 O_____________ hurdat_atl AL041966 35.8000 -40.8000 HU 65 1 6 315
1966202N32316 1966 45 NA NA DOROTHY 1966-07-26 03:00:00 TS 35.9801 -41.0849 main 1547 1522 P_____________ AL041966 35.9801 -41.0849 HU 67 1 6 302
1966202N32316 1966 45 NA NA DOROTHY 1966-07-26 06:00:00 TS 36.1000 -41.4000 70 hurdat_atl main 1522 1497 O_____________ hurdat_atl AL041966 36.1000 -41.4000 HU 70 1 5 290
1966202N32316 1966 45 NA NA DOROTHY 1966-07-26 09:00:00 TS 36.1575 -41.6727 main 1497 1487 P_____________ AL041966 36.1575 -41.6727 HU 72 1 4 284
1966202N32316 1966 45 NA NA DOROTHY 1966-07-26 12:00:00 TS 36.2000 -41.9000 75 989 hurdat_atl main 1487 1467 O_____________ hurdat_atl AL041966 36.2000 -41.9000 HU 75 989 1 4 291
1966202N32316 1966 45 NA NA DOROTHY 1966-07-26 15:00:00 TS 36.2850 -42.0875 main 1467 1453 P_____________ AL041966 36.2850 -42.0875 HU 75 1 3 310
1966202N32316 1966 45 NA NA DOROTHY 1966-07-26 18:00:00 TS 36.4000 -42.2000 75 hurdat_atl main 1453 1444 O_____________ hurdat_atl AL041966 36.4000 -42.2000 HU 75 1 3 331
1966202N32316 1966 45 NA NA DOROTHY 1966-07-26 21:00:00 TS 36.5124 -42.2448 main 1444 1426 P_____________ AL041966 36.5124 -42.2448 HU 75 1 3 0
1966202N32316 1966 45 NA NA DOROTHY 1966-07-27 00:00:00 TS 36.7000 -42.2000 75 hurdat_atl main 1426 1404 O_____________ hurdat_atl AL041966 36.7000 -42.2000 HU 75 1 5 14
1966202N32316 1966 45 NA NA DOROTHY 1966-07-27 03:00:00 TS 37.0125 -42.0874 main 1404 1380 P_____________ AL041966 37.0125 -42.0874 HU 75 1 7 19
1966202N32316 1966 45 NA NA DOROTHY 1966-07-27 06:00:00 TS 37.4000 -41.9000 75 990 hurdat_atl main 1380 1357 O_____________ hurdat_atl AL041966 37.4000 -41.9000 HU 75 990 1 9 22
1966202N32316 1966 45 NA NA DOROTHY 1966-07-27 09:00:00 TS 37.8150 -41.6727 main 1357 1340 P_____________ AL041966 37.8150 -41.6727 HU 75 1 9 26
1966202N32316 1966 45 NA NA DOROTHY 1966-07-27 12:00:00 TS 38.2000 -41.4000 75 hurdat_atl main 1340 1332 O_____________ hurdat_atl AL041966 38.2000 -41.4000 HU 75 1 8 34
1966202N32316 1966 45 NA NA DOROTHY 1966-07-27 15:00:00 TS 38.4649 -41.1144 main 1334 1330 P_____________ AL041966 38.4649 -41.1144 HU 72 1 7 43
1966202N32316 1966 45 NA NA DOROTHY 1966-07-27 18:00:00 TS 38.7000 -40.8000 70 hurdat_atl main 1336 1331 O_____________ hurdat_atl AL041966 38.7000 -40.8000 HU 70 1 7 44
1966202N32316 1966 45 NA NA DOROTHY 1966-07-27 21:00:00 TS 38.9773 -40.4719 main 1331 1328 P_____________ AL041966 38.9773 -40.4719 HU 70 1 8 42
1966202N32316 1966 45 NA NA DOROTHY 1966-07-28 00:00:00 TS 39.3000 -40.1000 70 994 hurdat_atl main 1333 1329 O_____________ hurdat_atl AL041966 39.3000 -40.1000 HU 70 994 1 10 42
1966202N32316 1966 45 NA NA DOROTHY 1966-07-28 03:00:00 TS 39.6852 -39.6502 main 1329 1328 P_____________ AL041966 39.6852 -39.6502 HU 70 993 1 11 41
1966202N32316 1966 45 NA NA DOROTHY 1966-07-28 06:00:00 TS 40.1000 -39.2000 70 hurdat_atl main 1333 1333 I_____________ hurdat_atl AL041966 40.1000 -39.2000 HU 70 993 1 10 38
1966202N32316 1966 45 NA NA DOROTHY 1966-07-28 09:00:00 TS 40.5075 -38.8049 main 1333 1326 P_____________ AL041966 40.5075 -38.8049 HU 70 993 1 10 34
1966202N32316 1966 45 NA NA DOROTHY 1966-07-28 12:00:00 TS 40.9000 -38.5000 70 993 hurdat_atl main 1328 1316 O_____________ hurdat_atl AL041966 40.9000 -38.5000 HU 70 993 1 8 27
1966202N32316 1966 45 NA NA DOROTHY 1966-07-28 15:00:00 TS 41.2498 -38.3119 main 1323 1306 P_____________ AL041966 41.2498 -38.3119 HU 67 994 1 7 18
1966202N32316 1966 45 NA NA DOROTHY 1966-07-28 18:00:00 TS 41.6000 -38.2000 65 996 hurdat_atl main 1306 1291 O_____________ hurdat_atl AL041966 41.6000 -38.2000 HU 65 996 1 8 12
1966202N32316 1966 45 NA NA DOROTHY 1966-07-28 21:00:00 TS 41.9999 -38.0997 main 1291 1274 P_____________ AL041966 41.9999 -38.0997 HU 65 1 8 11
1966202N32316 1966 45 NA NA DOROTHY 1966-07-29 00:00:00 TS 42.4000 -38.0000 65 hurdat_atl main 1274 1264 O_____________ hurdat_atl AL041966 42.4000 -38.0000 HU 65 1 8 14
1966202N32316 1966 45 NA NA DOROTHY 1966-07-29 03:00:00 TS 42.7500 -37.8500 main 1265 1255 P_____________ AL041966 42.7500 -37.8500 HU 62 0 7 17
1966202N32316 1966 45 NA NA DOROTHY 1966-07-29 06:00:00 TS 43.1000 -37.7000 60 hurdat_atl main 1256 1243 O_____________ hurdat_atl AL041966 43.1000 -37.7000 TS 60 0 8 14
1966202N32316 1966 45 NA NA DOROTHY 1966-07-29 09:00:00 TS 43.5000 -37.5849 main 1243 1232 P_____________ AL041966 43.5000 -37.5849 TS 57 0 8 10
1966202N32316 1966 45 NA NA DOROTHY 1966-07-29 12:00:00 TS 43.9000 -37.5000 55 996 hurdat_atl main 1232 1223 O_____________ hurdat_atl AL041966 43.9000 -37.5000 TS 55 996 0 8 8
1966202N32316 1966 45 NA NA DOROTHY 1966-07-29 15:00:00 TS 44.2575 -37.4349 main 1221 1209 P_____________ AL041966 44.2575 -37.4349 TS 52 998 0 7 6
1966202N32316 1966 45 NA NA DOROTHY 1966-07-29 18:00:00 TS 44.6000 -37.4000 50 1000 hurdat_atl main 1209 1198 O_____________ hurdat_atl AL041966 44.6000 -37.4000 TS 50 1000 0 7 0
1966202N32316 1966 45 NA NA DOROTHY 1966-07-29 21:00:00 TS 44.9500 -37.3997 main 1198 1184 P_____________ AL041966 44.9500 -37.3997 TS 50 0 7 0
1966202N32316 1966 45 NA NA DOROTHY 1966-07-30 00:00:00 TS 45.3000 -37.4000 50 hurdat_atl main 1184 1174 O_____________ hurdat_atl AL041966 45.3000 -37.4000 TS 50 0 7 0
1966202N32316 1966 45 NA NA DOROTHY 1966-07-30 03:00:00 TS 45.6425 -37.3649 main 1174 1170 P_____________ AL041966 45.6425 -37.3649 TS 47 0 7 6
1966202N32316 1966 45 NA NA DOROTHY 1966-07-30 06:00:00 TS 46.0000 -37.3000 45 hurdat_atl main 1170 1163 O_____________ hurdat_atl AL041966 46.0000 -37.3000 TS 45 0 7 7
1966202N32316 1966 45 NA NA DOROTHY 1966-07-30 09:00:00 TS 46.3849 -37.2295 main 1168 1162 P_____________ AL041966 46.3849 -37.2295 TS 45 0 8 10
1966202N32316 1966 45 NA NA DOROTHY 1966-07-30 12:00:00 ET 46.8000 -37.1000 45 hurdat_atl main 1167 1165 O_____________ hurdat_atl AL041966 46.8000 -37.1000 EX 45 -4 9 16
1966202N32316 1966 45 NA NA DOROTHY 1966-07-30 15:00:00 ET 47.2125 -36.8795 main 1176 1174 P_____________ AL041966 47.2125 -36.8795 EX 45 -4 10 21
1966202N32316 1966 45 NA NA DOROTHY 1966-07-30 18:00:00 ET 47.7000 -36.6000 45 1009 hurdat_atl main 1192 1191 O_____________ hurdat_atl AL041966 47.7000 -36.6000 EX 45 1009 -4 12 19
1966202N32316 1966 45 NA NA DOROTHY 1966-07-30 21:00:00 ET 48.3126 -36.3043 main 1210 1210 P_____________ AL041966 48.3126 -36.3043 EX 42 -4 14 17
1966202N32316 1966 45 NA NA DOROTHY 1966-07-31 00:00:00 ET 49.0000 -36.0000 40 hurdat_atl main 1232 O_____________ hurdat_atl AL041966 49.0000 -36.0000 EX 40 -4 14 16

IBTrACS Databaseについて

本データベースは、米国NOAAが公開する1842年以降の世界の熱帯低気圧のベストトラックデータアーカイブInternational Best Track Archive for Climate Stewardship (IBTrACS)を、ウェブで閲覧しやすい形式に変換したものです。

最終更新日:2022-05-26